Time;durP1;ratioP1;P1;durP2;ratioP2;P2;SDS_P1;SDS_P2;PMS_P1;PMS_P2;Temp;Humidity;BMP_temperature;BMP_pressure;BME280_temperature;BME280_humidity;BME280_pressure;Samples;Min_cycle;Max_cycle;Signal;HPM_P1;HPM_P2
2023/05/28 00:04:34;;;;;;;10.10;7.95;;;;;;;;;;9502302;30;20060;-73
2023/05/28 00:09:28;;;;;;;10.38;7.60;;;;;;;;;;9503014;30;20066;-73
2023/05/28 00:14:22;;;;;;;14.60;8.05;;;;;;;;;;9496192;30;20148;-73
2023/05/28 00:19:17;;;;;;;9.10;7.22;;;;;;;;;;9481249;30;20496;-73
2023/05/28 00:24:11;;;;;;;11.13;6.70;;;;;;;;;;9479344;30;20535;-73
2023/05/28 00:29:04;;;;;;;11.68;7.47;;;;;;;;;;9504722;30;20583;-72
2023/05/28 00:33:58;;;;;;;11.48;7.28;;;;;;;;;;9483426;30;20074;-72
2023/05/28 00:38:52;;;;;;;10.13;6.90;;;;;;;;;;9469363;30;20088;-73
2023/05/28 00:43:46;;;;;;;9.25;7.10;;;;;;;;;;9479077;30;20067;-73
2023/05/28 00:48:38;;;;;;;11.95;7.97;;;;;;;;;;9509708;30;20056;-73
2023/05/28 00:53:32;;;;;;;12.82;8.45;;;;;;;;;;9518681;30;20098;-72
2023/05/28 00:58:26;;;;;;;14.38;9.35;;;;;;;;;;9503017;30;20076;-73
2023/05/28 01:03:20;;;;;;;14.07;7.80;;;;;;;;;;9501718;30;20056;-73
2023/05/28 01:08:15;;;;;;;12.27;7.82;;;;;;;;;;9472764;30;20060;-73
2023/05/28 01:13:09;;;;;;;13.70;8.55;;;;;;;;;;9501933;30;20060;-73
2023/05/28 01:18:01;;;;;;;12.15;8.15;;;;;;;;;;9502467;30;20071;-73
2023/05/28 01:22:59;;;;;;;9.90;8.02;;;;;;;;;;9486381;30;20566;-72
2023/05/28 01:27:54;;;;;;;8.02;6.93;;;;;;;;;;9501846;30;20483;-72
2023/05/28 01:32:48;;;;;;;8.95;6.15;;;;;;;;;;9501716;30;20092;-73
2023/05/28 01:37:48;;;;;;;7.50;6.68;;;;;;;;;;9502143;30;20126;-73
2023/05/28 01:42:41;;;;;;;7.80;7.00;;;;;;;;;;9502178;30;20090;-73
2023/05/28 01:47:34;;;;;;;8.23;6.68;;;;;;;;;;9501423;30;20056;-72
2023/05/28 01:52:27;;;;;;;8.32;7.53;;;;;;;;;;9499905;30;20804;-72
2023/05/28 01:57:22;;;;;;;9.30;7.13;;;;;;;;;;9501652;30;20511;-72
2023/05/28 02:02:16;;;;;;;9.77;7.40;;;;;;;;;;9490029;30;20509;-72
2023/05/28 02:07:10;;;;;;;11.73;6.57;;;;;;;;;;9510717;30;20118;-72
2023/05/28 02:12:04;;;;;;;9.63;6.78;;;;;;;;;;9497077;30;20056;-72
2023/05/28 02:16:58;;;;;;;10.35;6.57;;;;;;;;;;9492881;30;20059;-72
2023/05/28 02:21:53;;;;;;;9.48;7.45;;;;;;;;;;9500464;30;20064;-72
2023/05/28 02:26:47;;;;;;;11.15;6.70;;;;;;;;;;9481394;30;20057;-72
2023/05/28 02:31:41;;;;;;;9.07;7.00;;;;;;;;;;9488202;30;20060;-72
2023/05/28 02:36:36;;;;;;;15.90;7.50;;;;;;;;;;9501008;30;20083;-73
2023/05/28 02:41:30;;;;;;;9.98;7.50;;;;;;;;;;9483496;30;20052;-72
2023/05/28 02:46:24;;;;;;;11.88;6.85;;;;;;;;;;9507615;30;20565;-73
2023/05/28 02:51:18;;;;;;;8.48;7.30;;;;;;;;;;9505902;30;20052;-73
2023/05/28 02:56:43;;;;;;;11.88;7.30;;;;;;;;;;9501082;30;20060;-73
2023/05/28 03:01:37;;;;;;;9.98;7.45;;;;;;;;;;9488135;30;20091;-73
2023/05/28 03:06:30;;;;;;;9.13;7.10;;;;;;;;;;9507349;30;20151;-75
2023/05/28 03:11:25;;;;;;;9.48;7.40;;;;;;;;;;9504991;30;20525;-75
2023/05/28 03:16:19;;;;;;;10.23;7.07;;;;;;;;;;9500035;30;20060;-75
2023/05/28 03:21:14;;;;;;;9.10;7.80;;;;;;;;;;9500561;30;20080;-75
2023/05/28 03:26:07;;;;;;;8.13;7.32;;;;;;;;;;9496641;30;20048;-73
2023/05/28 03:30:59;;;;;;;10.10;7.75;;;;;;;;;;9504625;30;20087;-72
2023/05/28 03:35:53;;;;;;;9.02;7.07;;;;;;;;;;9495556;30;20056;-74
2023/05/28 03:40:46;;;;;;;9.00;6.90;;;;;;;;;;9485654;30;20543;-74
2023/05/28 03:45:40;;;;;;;8.18;6.72;;;;;;;;;;9485810;30;20083;-71
2023/05/28 03:50:34;;;;;;;8.43;7.15;;;;;;;;;;9485522;30;20086;-71
2023/05/28 03:55:28;;;;;;;10.02;6.60;;;;;;;;;;9493064;30;20055;-72
2023/05/28 04:00:21;;;;;;;8.88;7.20;;;;;;;;;;9504640;30;20135;-72
2023/05/28 04:05:15;;;;;;;12.25;7.63;;;;;;;;;;9476033;30;20056;-72
2023/05/28 04:10:09;;;;;;;11.48;8.38;;;;;;;;;;9484768;30;20540;-74
2023/05/28 04:15:03;;;;;;;10.27;7.20;;;;;;;;;;9500796;30;20118;-73
2023/05/28 04:19:58;;;;;;;8.75;7.85;;;;;;;;;;9489966;30;20183;-72
2023/05/28 04:24:55;;;;;;;8.88;7.97;;;;;;;;;;9495984;30;20714;-72
2023/05/28 04:29:48;;;;;;;17.67;7.13;;;;;;;;;;9495862;30;20052;-72
2023/05/28 04:34:42;;;;;;;9.35;8.23;;;;;;;;;;9507986;30;20060;-72
2023/05/28 04:39:37;;;;;;;13.43;8.63;;;;;;;;;;9511243;30;20051;-72
2023/05/28 04:44:32;;;;;;;14.57;8.48;;;;;;;;;;9500989;29;20118;-72
2023/05/28 04:49:29;;;;;;;16.58;9.93;;;;;;;;;;9490531;30;20571;-72
2023/05/28 04:54:21;;;;;;;10.98;9.73;;;;;;;;;;9487373;30;20052;-72
2023/05/28 04:59:15;;;;;;;17.75;10.70;;;;;;;;;;9489899;30;20108;-72
2023/05/28 05:04:10;;;;;;;17.92;11.13;;;;;;;;;;9511233;30;20060;-72
2023/05/28 05:09:07;;;;;;;21.10;13.27;;;;;;;;;;9496060;30;20114;-72
2023/05/28 05:14:01;;;;;;;15.98;12.77;;;;;;;;;;9511057;30;20064;-72
2023/05/28 05:18:55;;;;;;;14.50;13.00;;;;;;;;;;9497614;30;20636;-72
2023/05/28 05:23:48;;;;;;;17.00;12.27;;;;;;;;;;9509299;30;20053;-72
2023/05/28 05:28:43;;;;;;;14.48;12.60;;;;;;;;;;9513291;30;20501;-72
2023/05/28 05:33:35;;;;;;;19.67;12.95;;;;;;;;;;9502167;30;20087;-73
2023/05/28 05:38:45;;;;;;;15.70;11.40;;;;;;;;;;9495148;30;20513;-72
2023/05/28 05:44:16;;;;;;;14.85;11.88;;;;;;;;;;9455336;30;20071;-72
2023/05/28 05:49:09;;;;;;;16.27;11.45;;;;;;;;;;9498014;30;20144;-72
2023/05/28 05:54:04;;;;;;;14.63;10.57;;;;;;;;;;9522682;30;20060;-72
2023/05/28 05:58:59;;;;;;;12.98;10.90;;;;;;;;;;9475868;30;20107;-73
2023/05/28 06:03:52;;;;;;;13.10;11.70;;;;;;;;;;9476502;30;20484;-73
2023/05/28 06:09:16;;;;;;;12.07;10.77;;;;;;;;;;9497051;30;20139;-75
2023/05/28 06:14:12;;;;;;;14.18;11.20;;;;;;;;;;9487803;30;20056;-73
2023/05/28 06:19:07;;;;;;;10.52;9.20;;;;;;;;;;9508736;30;20075;-74
2023/05/28 06:24:01;;;;;;;15.80;11.20;;;;;;;;;;9507454;30;20084;-74
2023/05/28 06:28:54;;;;;;;11.93;10.15;;;;;;;;;;9508023;30;20542;-73
2023/05/28 06:33:48;;;;;;;12.77;10.27;;;;;;;;;;9506932;30;20083;-72
2023/05/28 06:38:42;;;;;;;13.75;10.95;;;;;;;;;;9507480;30;20123;-72
2023/05/28 06:43:37;;;;;;;11.75;10.55;;;;;;;;;;9520636;30;20512;-72
2023/05/28 06:48:54;;;;;;;12.43;10.23;;;;;;;;;;9464678;30;20148;-70
2023/05/28 06:53:47;;;;;;;15.55;10.10;;;;;;;;;;9510333;30;20063;-71
2023/05/28 06:58:45;;;;;;;11.45;9.35;;;;;;;;;;9503886;30;20099;-72
2023/05/28 07:03:57;;;;;;;19.05;9.98;;;;;;;;;;9497591;30;20137;-71
2023/05/28 07:09:02;;;;;;;13.60;9.48;;;;;;;;;;9497343;30;20486;-71
2023/05/28 07:13:57;;;;;;;10.85;8.70;;;;;;;;;;9513728;30;20584;-72
2023/05/28 07:18:51;;;;;;;12.43;9.70;;;;;;;;;;9492764;30;20099;-72
2023/05/28 07:23:45;;;;;;;12.07;9.82;;;;;;;;;;9492475;30;20049;-73
2023/05/28 07:28:39;;;;;;;13.60;9.65;;;;;;;;;;9497612;30;20052;-72
2023/05/28 07:33:33;;;;;;;14.50;9.98;;;;;;;;;;9488752;30;20067;-73
2023/05/28 07:38:28;;;;;;;12.98;10.50;;;;;;;;;;9494227;30;20083;-76
2023/05/28 07:43:24;;;;;;;10.80;9.38;;;;;;;;;;9486875;30;20063;-78
2023/05/28 07:48:21;;;;;;;15.98;10.25;;;;;;;;;;9488501;30;20429;-78
2023/05/28 07:53:29;;;;;;;15.15;9.75;;;;;;;;;;9486857;30;20048;-78
2023/05/28 07:58:22;;;;;;;9.90;8.55;;;;;;;;;;9493322;30;20148;-78
2023/05/28 08:03:17;;;;;;;9.85;8.85;;;;;;;;;;9493174;30;20052;-77
2023/05/28 08:08:14;;;;;;;10.18;9.13;;;;;;;;;;9498814;30;20506;-77
2023/05/28 08:13:08;;;;;;;13.05;10.18;;;;;;;;;;9485585;30;20060;-77
2023/05/28 08:18:01;;;;;;;14.63;10.13;;;;;;;;;;9488942;30;20063;-75
2023/05/28 08:22:56;;;;;;;10.55;9.43;;;;;;;;;;9479843;30;20119;-74
2023/05/28 08:27:49;;;;;;;9.48;8.57;;;;;;;;;;9483493;30;20071;-74
2023/05/28 08:32:43;;;;;;;10.52;8.80;;;;;;;;;;9493892;30;20500;-77
2023/05/28 08:37:37;;;;;;;10.13;8.55;;;;;;;;;;9492031;30;20109;-77
2023/05/28 08:42:36;;;;;;;11.10;7.72;;;;;;;;;;9492701;30;20048;-78
2023/05/28 08:47:34;;;;;;;11.68;8.73;;;;;;;;;;9483603;30;20510;-72
2023/05/28 08:52:44;;;;;;;10.82;9.63;;;;;;;;;;9488319;30;20140;-73
2023/05/28 08:57:38;;;;;;;12.48;10.45;;;;;;;;;;9498375;30;20404;-71
2023/05/28 09:02:31;;;;;;;13.77;10.65;;;;;;;;;;9507832;30;20398;-73
2023/05/28 09:07:26;;;;;;;13.63;10.23;;;;;;;;;;9475868;30;20063;-70
2023/05/28 09:12:24;;;;;;;;;;;;;;;;;;9512660;30;20513;-69
2023/05/28 09:17:37;;;;;;;12.10;10.57;;;;;;;;;;9505145;30;19984;-70
2023/05/28 09:22:38;;;;;;;15.77;9.70;;;;;;;;;;9495691;30;20056;-71
2023/05/28 09:27:46;;;;;;;10.60;9.50;;;;;;;;;;9498926;30;20100;-73
2023/05/28 09:32:41;;;;;;;10.50;8.75;;;;;;;;;;9483750;30;20064;-70
2023/05/28 09:37:35;;;;;;;15.98;9.45;;;;;;;;;;9487114;30;20122;-72
2023/05/28 09:42:36;;;;;;;11.68;8.95;;;;;;;;;;9479931;30;20102;-68
2023/05/28 09:47:30;;;;;;;13.73;8.85;;;;;;;;;;9493152;30;20052;-69
2023/05/28 09:52:24;;;;;;;10.25;7.65;;;;;;;;;;9486911;30;20059;-71
2023/05/28 09:57:25;;;;;;;12.05;7.28;;;;;;;;;;9496249;30;20111;-71
2023/05/28 10:02:30;;;;;;;9.88;8.88;;;;;;;;;;9498713;30;20060;-68
2023/05/28 10:07:25;;;;;;;11.35;7.85;;;;;;;;;;9495116;30;20060;-67
2023/05/28 10:12:25;;;;;;;10.75;6.80;;;;;;;;;;9494047;30;20475;-66
2023/05/28 10:17:19;;;;;;;9.05;7.80;;;;;;;;;;9489358;30;20139;-66
2023/05/28 10:22:13;;;;;;;10.70;7.78;;;;;;;;;;9494159;30;20519;-66
2023/05/28 10:27:07;;;;;;;9.77;7.20;;;;;;;;;;9500976;30;20505;-66
2023/05/28 10:32:05;;;;;;;9.32;6.88;;;;;;;;;;9499313;30;20060;-66
2023/05/28 10:37:03;;;;;;;13.30;6.95;;;;;;;;;;9495340;30;20629;-66
2023/05/28 10:41:57;;;;;;;9.75;7.43;;;;;;;;;;9494767;30;20063;-64
2023/05/28 10:46:57;;;;;;;8.32;6.80;;;;;;;;;;9489939;30;20149;-65
2023/05/28 10:52:02;;;;;;;11.23;6.53;;;;;;;;;;9502777;30;20106;-66
2023/05/28 10:57:17;;;;;;;6.32;5.63;;;;;;;;;;9490121;30;20068;-66
2023/05/28 11:02:10;;;;;;;;;;;;;;;;;;9502787;30;20056;-66
2023/05/28 11:07:05;;;;;;;6.20;5.60;;;;;;;;;;9500447;30;19930;-70
2023/05/28 11:12:00;;;;;;;6.60;6.00;;;;;;;;;;9501091;30;20087;-70
2023/05/28 11:16:53;;;;;;;8.55;6.07;;;;;;;;;;9507595;30;20048;-70
2023/05/28 11:21:55;;;;;;;12.33;7.47;;;;;;;;;;9497159;30;20540;-71
2023/05/28 11:26:53;;;;;;;12.13;7.63;;;;;;;;;;9507976;30;20057;-71
2023/05/28 11:31:47;;;;;;;10.30;7.95;;;;;;;;;;9501365;30;20068;-70
2023/05/28 11:36:45;;;;;;;11.30;7.07;;;;;;;;;;9514767;30;20096;-71
2023/05/28 11:41:39;;;;;;;11.02;8.00;;;;;;;;;;9491375;30;20052;-77
2023/05/28 11:46:33;;;;;;;10.80;7.63;;;;;;;;;;9480182;30;20143;-77
2023/05/28 11:51:26;;;;;;;10.82;7.63;;;;;;;;;;9494480;30;20134;-76
2023/05/28 11:56:21;;;;;;;13.63;8.30;;;;;;;;;;9493869;30;20063;-77
2023/05/28 12:01:34;;;;;;;12.68;9.63;;;;;;;;;;9482833;30;20056;-79
2023/05/28 12:06:33;;;;;;;16.65;9.30;;;;;;;;;;9483273;30;20055;-80
2023/05/28 12:11:33;;;;;;;10.32;7.90;;;;;;;;;;9495181;30;20059;-76
2023/05/28 12:16:27;;;;;;;9.63;8.55;;;;;;;;;;9502751;30;20082;-80
2023/05/28 12:21:21;;;;;;;10.48;9.45;;;;;;;;;;9500203;30;20139;-78
2023/05/28 12:26:15;;;;;;;10.88;8.90;;;;;;;;;;9510151;29;20143;-76
2023/05/28 12:31:09;;;;;;;8.63;7.68;;;;;;;;;;9499915;30;20063;-78
2023/05/28 12:36:03;;;;;;;10.85;8.20;;;;;;;;;;9511891;30;20095;-78
2023/05/28 12:40:58;;;;;;;9.68;7.00;;;;;;;;;;9506917;30;20059;-76
2023/05/28 12:45:53;;;;;;;11.37;9.00;;;;;;;;;;9498121;30;20531;-73
2023/05/28 12:50:47;;;;;;;8.75;7.13;;;;;;;;;;9500835;30;20067;-73
2023/05/28 12:55:40;;;;;;;10.55;8.20;;;;;;;;;;9503972;30;20058;-74
2023/05/28 13:00:35;;;;;;;12.63;7.88;;;;;;;;;;9510966;30;20072;-78
2023/05/28 13:05:27;;;;;;;11.52;7.63;;;;;;;;;;9496830;30;20057;-76
2023/05/28 13:10:21;;;;;;;10.05;7.10;;;;;;;;;;9491284;30;20501;-76
2023/05/28 13:15:15;;;;;;;5.72;4.90;;;;;;;;;;9498396;30;20064;-75
2023/05/28 13:20:10;;;;;;;7.75;7.00;;;;;;;;;;9492308;30;20517;-70
2023/05/28 13:25:04;;;;;;;8.23;6.28;;;;;;;;;;9493211;30;20044;-71
2023/05/28 13:29:57;;;;;;;7.57;6.68;;;;;;;;;;9493266;30;20052;-69
2023/05/28 13:34:50;;;;;;;8.60;6.22;;;;;;;;;;9497649;30;20095;-69
2023/05/28 13:39:43;;;;;;;7.28;6.00;;;;;;;;;;9500800;30;20064;-70
2023/05/28 13:44:39;;;;;;;12.93;7.25;;;;;;;;;;9517790;30;20116;-69
2023/05/28 13:49:32;;;;;;;5.85;5.22;;;;;;;;;;9489335;30;20123;-71
2023/05/28 13:54:26;;;;;;;9.85;6.22;;;;;;;;;;9497111;30;20472;-69
2023/05/28 13:59:18;;;;;;;6.10;5.50;;;;;;;;;;9523844;30;20052;-69
2023/05/28 14:04:13;;;;;;;8.75;5.10;;;;;;;;;;9521043;30;20508;-70
2023/05/28 14:09:08;;;;;;;6.30;5.50;;;;;;;;;;9495403;30;20132;-68
2023/05/28 14:14:02;;;;;;;8.70;5.75;;;;;;;;;;9497847;30;20048;-67
2023/05/28 14:18:54;;;;;;;10.70;6.00;;;;;;;;;;9506414;30;20110;-68
2023/05/28 14:23:48;;;;;;;8.88;5.80;;;;;;;;;;9507568;30;20101;-68
2023/05/28 14:28:42;;;;;;;11.23;5.60;;;;;;;;;;9505465;30;20084;-67
2023/05/28 14:33:36;;;;;;;6.70;5.70;;;;;;;;;;9508805;30;20115;-68
2023/05/28 14:38:30;;;;;;;6.30;5.63;;;;;;;;;;9507405;30;20144;-68
2023/05/28 14:43:23;;;;;;;8.77;6.15;;;;;;;;;;9504822;30;20052;-68
2023/05/28 14:48:16;;;;;;;8.10;5.93;;;;;;;;;;9506291;30;20059;-68
2023/05/28 14:53:09;;;;;;;11.90;6.13;;;;;;;;;;9506469;30;20060;-67
2023/05/28 14:58:03;;;;;;;11.52;7.25;;;;;;;;;;9504038;30;20079;-69
2023/05/28 15:02:59;;;;;;;12.73;6.20;;;;;;;;;;9510972;30;20539;-68
2023/05/28 15:07:53;;;;;;;7.43;5.70;;;;;;;;;;9483336;30;20484;-69
2023/05/28 15:12:48;;;;;;;10.32;6.35;;;;;;;;;;9497356;30;20056;-70
2023/05/28 15:17:42;;;;;;;6.65;5.93;;;;;;;;;;9499536;30;20058;-68
2023/05/28 15:22:35;;;;;;;12.80;6.80;;;;;;;;;;9489997;30;20143;-69
2023/05/28 15:27:29;;;;;;;6.60;5.90;;;;;;;;;;9496650;30;20056;-69
2023/05/28 15:32:22;;;;;;;8.43;6.07;;;;;;;;;;9492571;30;20436;-69
2023/05/28 15:37:16;;;;;;;10.15;6.57;;;;;;;;;;9492240;30;20118;-72
2023/05/28 15:42:10;;;;;;;9.57;6.55;;;;;;;;;;9496572;30;20429;-72
2023/05/28 15:47:06;;;;;;;11.15;6.22;;;;;;;;;;9489111;30;20059;-73
2023/05/28 15:52:00;;;;;;;6.40;5.80;;;;;;;;;;9499014;30;20052;-74
2023/05/28 15:56:54;;;;;;;6.72;6.03;;;;;;;;;;9501849;30;20052;-74
2023/05/28 16:01:50;;;;;;;11.15;6.28;;;;;;;;;;9500540;30;20056;-73
2023/05/28 16:06:46;;;;;;;6.40;5.73;;;;;;;;;;9486794;30;20063;-73
2023/05/28 16:11:42;;;;;;;9.75;6.40;;;;;;;;;;9485742;29;20819;-73
2023/05/28 16:16:35;;;;;;;8.82;6.13;;;;;;;;;;9489781;30;20444;-72
2023/05/28 16:21:34;;;;;;;6.22;5.57;;;;;;;;;;9505000;30;20064;-71
2023/05/28 16:26:28;;;;;;;7.40;5.70;;;;;;;;;;9488664;30;20111;-72
2023/05/28 16:31:25;;;;;;;6.45;5.65;;;;;;;;;;9483296;30;20154;-72
2023/05/28 16:36:21;;;;;;;7.28;6.05;;;;;;;;;;9487753;29;20056;-72
2023/05/28 16:41:14;;;;;;;11.48;7.55;;;;;;;;;;9494504;30;20084;-69
2023/05/28 16:46:08;;;;;;;7.35;6.32;;;;;;;;;;9499904;30;20524;-66
2023/05/28 16:51:04;;;;;;;13.18;6.32;;;;;;;;;;9497750;30;20064;-66
2023/05/28 16:55:57;;;;;;;8.13;5.55;;;;;;;;;;9497504;30;20405;-68
2023/05/28 17:00:52;;;;;;;8.95;5.75;;;;;;;;;;9495098;30;20040;-67
2023/05/28 17:05:46;;;;;;;8.52;6.38;;;;;;;;;;9495963;30;20143;-69
2023/05/28 17:10:40;;;;;;;12.38;5.95;;;;;;;;;;9496110;30;20136;-70
2023/05/28 17:15:33;;;;;;;8.38;5.57;;;;;;;;;;9495749;30;20064;-67
2023/05/28 17:20:27;;;;;;;6.65;5.95;;;;;;;;;;9493267;29;20480;-67
2023/05/28 17:25:21;;;;;;;10.40;5.90;;;;;;;;;;9491833;30;20056;-69
2023/05/28 17:30:19;;;;;;;7.67;5.70;;;;;;;;;;9493357;30;20139;-68
2023/05/28 17:35:12;;;;;;;8.32;6.03;;;;;;;;;;9498853;30;20066;-68
2023/05/28 17:40:07;;;;;;;7.95;6.95;;;;;;;;;;9500302;30;20142;-68
2023/05/28 17:45:01;;;;;;;7.05;6.35;;;;;;;;;;9504685;30;20110;-68
2023/05/28 17:49:54;;;;;;;7.50;6.75;;;;;;;;;;9500679;30;20131;-68
2023/05/28 17:54:47;;;;;;;9.70;6.25;;;;;;;;;;9523958;30;20087;-68
2023/05/28 17:59:42;;;;;;;8.70;5.80;;;;;;;;;;9507153;30;20052;-69
2023/05/28 18:04:36;;;;;;;7.70;6.68;;;;;;;;;;9516247;30;20066;-68
2023/05/28 18:09:30;;;;;;;10.15;6.03;;;;;;;;;;9504125;30;20080;-68
2023/05/28 18:14:29;;;;;;;7.75;6.53;;;;;;;;;;9505041;30;20048;-67
2023/05/28 18:19:23;;;;;;;11.00;7.10;;;;;;;;;;9521533;30;20052;-68
2023/05/28 18:24:16;;;;;;;12.23;7.03;;;;;;;;;;9504742;30;20070;-69
2023/05/28 18:29:11;;;;;;;13.05;7.05;;;;;;;;;;9502379;30;20517;-65
2023/05/28 18:34:06;;;;;;;8.48;6.80;;;;;;;;;;9501494;30;20052;-66
2023/05/28 18:39:00;;;;;;;11.05;6.97;;;;;;;;;;9503801;30;20409;-66
2023/05/28 18:43:54;;;;;;;8.77;6.40;;;;;;;;;;9500561;30;20048;-65
2023/05/28 18:48:48;;;;;;;10.82;6.80;;;;;;;;;;9504384;30;20060;-66
2023/05/28 18:53:42;;;;;;;8.95;6.70;;;;;;;;;;9505671;30;20052;-67
2023/05/28 18:58:35;;;;;;;7.97;7.20;;;;;;;;;;9505777;30;20143;-65
2023/05/28 19:03:30;;;;;;;8.60;6.97;;;;;;;;;;9506054;30;20051;-66
2023/05/28 19:08:23;;;;;;;9.13;7.47;;;;;;;;;;9510608;30;20059;-67
2023/05/28 19:13:17;;;;;;;9.68;6.82;;;;;;;;;;9505680;30;20056;-66
2023/05/28 19:18:10;;;;;;;7.80;6.72;;;;;;;;;;9511156;30;20052;-67
2023/05/28 19:23:04;;;;;;;10.95;6.47;;;;;;;;;;9495715;30;20065;-66
2023/05/28 19:27:58;;;;;;;9.77;6.72;;;;;;;;;;9517770;30;20056;-67
2023/05/28 19:32:53;;;;;;;7.80;6.88;;;;;;;;;;9507454;30;20473;-67
2023/05/28 19:37:49;;;;;;;8.27;6.03;;;;;;;;;;9507363;30;20433;-68
2023/05/28 19:42:43;;;;;;;7.97;6.93;;;;;;;;;;9507672;30;20775;-68
2023/05/28 19:47:39;;;;;;;10.27;6.85;;;;;;;;;;9506434;30;20047;-67
2023/05/28 19:52:34;;;;;;;9.15;6.60;;;;;;;;;;9500911;30;20421;-65
2023/05/28 19:57:31;;;;;;;7.70;6.53;;;;;;;;;;9506694;30;20048;-67
2023/05/28 20:02:28;;;;;;;12.13;6.28;;;;;;;;;;9499850;30;20083;-67
2023/05/28 20:07:22;;;;;;;9.10;6.93;;;;;;;;;;9500302;30;20465;-66
2023/05/28 20:12:15;;;;;;;8.75;6.95;;;;;;;;;;9506551;30;20574;-66
2023/05/28 20:17:09;;;;;;;10.35;7.30;;;;;;;;;;9507527;30;20374;-65
2023/05/28 20:22:04;;;;;;;9.10;7.25;;;;;;;;;;9506039;30;20136;-65
2023/05/28 20:26:59;;;;;;;10.15;7.18;;;;;;;;;;9500071;30;20080;-66
2023/05/28 20:31:53;;;;;;;10.63;7.70;;;;;;;;;;9508704;30;20062;-67
2023/05/28 20:36:49;;;;;;;8.80;7.57;;;;;;;;;;9505828;30;20060;-68
2023/05/28 20:41:45;;;;;;;14.30;8.02;;;;;;;;;;9503867;30;20093;-68
2023/05/28 20:46:40;;;;;;;10.25;7.97;;;;;;;;;;9502702;30;20060;-69
2023/05/28 20:51:34;;;;;;;9.10;7.43;;;;;;;;;;9501755;30;20058;-65
2023/05/28 20:56:29;;;;;;;11.20;8.48;;;;;;;;;;9497883;30;20476;-66
2023/05/28 21:01:22;;;;;;;17.05;8.65;;;;;;;;;;9505404;30;20066;-67
2023/05/28 21:06:14;;;;;;;10.35;9.35;;;;;;;;;;9495602;30;20508;-66
2023/05/28 21:11:08;;;;;;;16.45;10.48;;;;;;;;;;9501855;30;20056;-65
2023/05/28 21:16:02;;;;;;;13.95;10.70;;;;;;;;;;9505405;30;20056;-65
2023/05/28 21:20:55;;;;;;;13.75;9.80;;;;;;;;;;9501206;30;20457;-67
2023/05/28 21:25:49;;;;;;;11.02;9.68;;;;;;;;;;9498981;30;20052;-68
2023/05/28 21:30:42;;;;;;;16.88;10.50;;;;;;;;;;9504480;30;20059;-65
2023/05/28 21:35:35;;;;;;;12.48;9.73;;;;;;;;;;9497145;30;20056;-65
2023/05/28 21:40:29;;;;;;;11.60;9.77;;;;;;;;;;9504560;29;20100;-67
2023/05/28 21:45:23;;;;;;;10.95;9.18;;;;;;;;;;9502453;30;20060;-68
2023/05/28 21:50:17;;;;;;;10.93;9.50;;;;;;;;;;9503242;30;20102;-68
2023/05/28 21:55:10;;;;;;;11.65;9.25;;;;;;;;;;9503688;30;20052;-68
2023/05/28 22:00:11;;;;;;;12.10;9.32;;;;;;;;;;9504692;30;20056;-67
2023/05/28 22:05:28;;;;;;;13.25;10.05;;;;;;;;;;9503507;30;20118;-67
2023/05/28 22:10:21;;;;;;;14.90;9.02;;;;;;;;;;9503064;30;20064;-67
2023/05/28 22:15:15;;;;;;;11.57;8.95;;;;;;;;;;9502659;30;20087;-67
2023/05/28 22:20:12;;;;;;;15.45;9.45;;;;;;;;;;9507091;30;20096;-67
2023/05/28 22:25:06;;;;;;;10.00;8.27;;;;;;;;;;9509395;30;20071;-67
2023/05/28 22:30:01;;;;;;;9.73;8.45;;;;;;;;;;9527749;30;20062;-68
2023/05/28 22:34:54;;;;;;;11.63;8.60;;;;;;;;;;9514791;30;20512;-67
2023/05/28 22:39:48;;;;;;;12.32;8.30;;;;;;;;;;9508962;30;20060;-68
2023/05/28 22:44:41;;;;;;;10.55;8.13;;;;;;;;;;9497791;30;20057;-67
2023/05/28 22:49:35;;;;;;;11.57;8.65;;;;;;;;;;9512422;30;20143;-67
2023/05/28 22:54:29;;;;;;;10.60;8.40;;;;;;;;;;9508062;30;20131;-67
2023/05/28 22:59:23;;;;;;;14.10;8.60;;;;;;;;;;9496706;30;20102;-67
2023/05/28 23:04:16;;;;;;;15.82;9.55;;;;;;;;;;9513456;30;20108;-67
2023/05/28 23:09:10;;;;;;;14.88;9.20;;;;;;;;;;9507639;30;20420;-67
2023/05/28 23:14:02;;;;;;;11.95;9.10;;;;;;;;;;9506317;30;20140;-67
2023/05/28 23:18:57;;;;;;;10.10;8.85;;;;;;;;;;9506686;30;20056;-67
2023/05/28 23:23:51;;;;;;;11.77;8.77;;;;;;;;;;9506743;30;20066;-67
2023/05/28 23:28:45;;;;;;;11.05;8.15;;;;;;;;;;9506986;30;20056;-67
2023/05/28 23:33:39;;;;;;;12.45;8.63;;;;;;;;;;9493772;30;20474;-67
2023/05/28 23:38:32;;;;;;;13.07;9.25;;;;;;;;;;9506003;30;20497;-67
2023/05/28 23:43:25;;;;;;;10.55;8.13;;;;;;;;;;9506211;30;20052;-67
2023/05/28 23:48:19;;;;;;;9.02;8.15;;;;;;;;;;9504000;30;20056;-67
2023/05/28 23:53:12;;;;;;;12.60;9.32;;;;;;;;;;9505922;30;20070;-66
2023/05/28 23:58:05;;;;;;;12.48;9.52;;;;;;;;;;9504803;30;20056;-66
